createdAt,value
2023-11-30T00:00:22.205Z,21.88
2023-11-30T00:02:48.786Z,22.38
2023-11-30T00:05:15.487Z,21.53
2023-11-30T00:07:42.683Z,28.40
2023-11-30T00:10:09.487Z,34.85
2023-11-30T00:14:40.292Z,29.17
2023-11-30T00:17:06.741Z,27.48
2023-11-30T00:19:33.111Z,28.85
2023-11-30T00:21:59.453Z,31.80
2023-11-30T00:24:25.892Z,22.85
2023-11-30T00:26:52.305Z,22.73
2023-11-30T00:29:18.670Z,19.17
2023-11-30T00:31:45.110Z,21.33
2023-11-30T00:34:11.565Z,28.88
2023-11-30T00:36:37.947Z,27.10
2023-11-30T00:39:04.956Z,24.97
2023-11-30T00:41:31.463Z,27.02
2023-11-30T00:43:57.925Z,24.38
2023-11-30T00:46:24.342Z,28.85
2023-11-30T00:48:50.763Z,26.95
2023-11-30T00:51:17.258Z,24.73
2023-11-30T00:53:44.115Z,22.83
2023-11-30T00:56:11.449Z,18.08
2023-11-30T00:58:37.868Z,22.67
2023-11-30T01:01:04.936Z,28.75
2023-11-30T01:03:31.399Z,24.55
2023-11-30T01:05:58.003Z,29.05
2023-11-30T01:08:24.425Z,28.25
2023-11-30T01:10:50.784Z,27.88
2023-11-30T01:13:17.163Z,28.20
2023-11-30T01:15:43.533Z,25.05
2023-11-30T01:18:12.942Z,24.33
2023-11-30T01:20:39.382Z,19.63
2023-11-30T01:23:05.811Z,25.65
2023-11-30T01:25:32.413Z,25.30
2023-11-30T01:27:58.811Z,24.23
2023-11-30T01:30:25.195Z,29.15
2023-11-30T01:32:51.701Z,26.50
2023-11-30T01:35:18.279Z,27.15
2023-11-30T01:37:44.729Z,30.20
2023-11-30T01:40:11.243Z,31.20
2023-11-30T01:42:38.294Z,30.65
2023-11-30T01:45:04.991Z,31.92
2023-11-30T01:47:32.302Z,28.42
2023-11-30T01:49:59.511Z,29.05
2023-11-30T01:52:26.180Z,24.88
2023-11-30T01:54:53.126Z,32.30
2023-11-30T01:57:19.700Z,30.25
2023-11-30T01:59:46.780Z,30.48
2023-11-30T02:02:13.886Z,27.02
2023-11-30T02:04:41.845Z,22.85
2023-11-30T02:07:08.214Z,27.02
2023-11-30T02:09:34.617Z,25.10
2023-11-30T02:12:01.011Z,25.60
2023-11-30T02:14:27.422Z,30.63
2023-11-30T02:16:53.784Z,34.55
2023-11-30T02:19:20.131Z,29.50
2023-11-30T02:21:52.922Z,31.42
2023-11-30T02:24:19.478Z,43.97
2023-11-30T02:26:45.966Z,43.08
2023-11-30T02:29:16.559Z,45.53
2023-11-30T02:31:43.246Z,43.63
2023-11-30T02:34:09.749Z,68.95
2023-11-30T02:36:36.117Z,63.83
2023-11-30T02:39:02.573Z,39.07
2023-11-30T02:41:29.830Z,40.78
2023-11-30T02:43:56.589Z,42.83
2023-11-30T02:46:23.117Z,42.10
2023-11-30T02:48:49.600Z,35.58
2023-11-30T02:51:16.036Z,44.80
2023-11-30T02:53:42.472Z,73.18
2023-11-30T02:56:09.011Z,44.45
2023-11-30T02:58:35.360Z,129.27
2023-11-30T03:01:02.838Z,116.90
2023-11-30T03:03:29.313Z,134.75
2023-11-30T03:05:56.370Z,108.45
2023-11-30T03:08:22.807Z,73.90
2023-11-30T03:10:49.919Z,113.00
2023-11-30T03:13:16.328Z,98.20
2023-11-30T03:15:46.342Z,93.43
2023-11-30T03:18:12.945Z,149.20
2023-11-30T03:20:39.431Z,188.18
2023-11-30T03:23:05.912Z,338.90
2023-11-30T03:25:34.115Z,130.93
2023-11-30T03:28:00.872Z,135.05
2023-11-30T03:30:27.577Z,75.85
2023-11-30T03:32:54.425Z,121.40
2023-11-30T03:35:20.859Z,87.77
2023-11-30T03:37:47.232Z,326.40
2023-11-30T03:40:13.612Z,434.63
2023-11-30T03:42:40.046Z,499.03
2023-11-30T03:45:06.604Z,470.85
2023-11-30T03:47:33.038Z,501.85
2023-11-30T03:49:59.413Z,234.77
2023-11-30T03:52:25.825Z,303.77
2023-11-30T03:54:52.195Z,254.18
2023-11-30T03:57:18.870Z,277.63
2023-11-30T03:59:45.358Z,346.77
2023-11-30T04:02:12.355Z,445.70
2023-11-30T04:04:39.165Z,322.70
2023-11-30T04:07:05.809Z,314.67
2023-11-30T04:09:32.220Z,326.48
2023-11-30T04:11:58.717Z,276.67
2023-11-30T04:14:25.726Z,387.15
2023-11-30T04:16:52.123Z,512.10
2023-11-30T04:19:18.527Z,297.73
2023-11-30T04:21:44.898Z,306.92
2023-11-30T04:24:11.325Z,376.73
2023-11-30T04:26:37.766Z,371.70
2023-11-30T04:29:04.107Z,383.02
2023-11-30T04:31:30.485Z,436.33
2023-11-30T04:33:57.586Z,487.65
2023-11-30T04:36:23.998Z,245.35
2023-11-30T04:38:50.444Z,277.17
2023-11-30T04:41:16.850Z,285.50
2023-11-30T04:43:43.202Z,343.70
2023-11-30T04:46:09.576Z,346.13
2023-11-30T04:48:37.232Z,386.58
2023-11-30T04:51:04.735Z,246.02
2023-11-30T04:53:31.128Z,313.08
2023-11-30T04:55:57.481Z,511.00
2023-11-30T04:58:23.828Z,259.30
2023-11-30T05:00:50.399Z,388.80
2023-11-30T05:03:17.509Z,245.40
2023-11-30T05:05:44.094Z,384.13
2023-11-30T05:08:11.819Z,352.40
2023-11-30T05:10:38.718Z,376.85
2023-11-30T05:13:05.125Z,359.05
2023-11-30T05:15:31.662Z,552.83
2023-11-30T05:17:58.169Z,445.77
2023-11-30T05:20:24.578Z,475.40
2023-11-30T05:22:51.429Z,631.00
2023-11-30T05:25:17.921Z,283.15
2023-11-30T05:27:44.310Z,374.98
2023-11-30T05:30:10.844Z,319.67
2023-11-30T05:32:37.708Z,261.45
2023-11-30T05:35:06.173Z,380.95
2023-11-30T05:37:32.665Z,245.10
2023-11-30T05:39:59.894Z,350.50
2023-11-30T05:42:26.353Z,566.03
2023-11-30T05:44:52.738Z,614.25
2023-11-30T05:47:19.179Z,210.48
2023-11-30T05:49:45.546Z,259.42
2023-11-30T05:52:11.926Z,538.70
2023-11-30T05:54:38.379Z,493.15
2023-11-30T05:57:04.929Z,323.92
2023-11-30T05:59:31.431Z,385.30
2023-11-30T06:01:58.476Z,389.70
2023-11-30T06:04:25.037Z,396.85
2023-11-30T06:06:51.453Z,688.13
2023-11-30T06:09:17.914Z,615.13
2023-11-30T06:11:44.404Z,377.15
2023-11-30T06:14:11.044Z,273.90
2023-11-30T06:16:37.582Z,330.67
2023-11-30T06:19:03.968Z,428.38
2023-11-30T06:21:30.377Z,420.30
2023-11-30T06:23:56.736Z,528.10
2023-11-30T06:26:23.647Z,266.02
2023-11-30T06:28:50.527Z,250.30
2023-11-30T06:31:17.200Z,332.03
2023-11-30T06:33:43.927Z,403.80
2023-11-30T06:36:10.513Z,445.47
2023-11-30T06:38:36.935Z,299.20
2023-11-30T06:41:10.546Z,440.40
2023-11-30T06:43:36.905Z,313.15
2023-11-30T06:46:03.276Z,499.13
2023-11-30T06:48:29.664Z,341.35
2023-11-30T06:50:56.050Z,502.08
2023-11-30T06:53:22.403Z,284.23
2023-11-30T06:55:48.748Z,320.85
2023-11-30T06:58:15.092Z,647.35
2023-11-30T07:00:41.853Z,644.17
2023-11-30T07:03:08.349Z,479.45
2023-11-30T07:05:34.721Z,324.00
2023-11-30T07:08:01.157Z,241.57
2023-11-30T07:10:27.533Z,189.88
2023-11-30T07:12:54.489Z,215.73
2023-11-30T07:15:21.004Z,388.30
2023-11-30T07:17:47.499Z,368.40
2023-11-30T07:20:14.090Z,174.10
2023-11-30T07:22:40.459Z,249.75
2023-11-30T07:25:08.087Z,244.02
2023-11-30T07:27:34.485Z,375.85
2023-11-30T07:30:00.972Z,323.60
2023-11-30T07:32:27.514Z,352.40
2023-11-30T07:34:53.932Z,382.23
2023-11-30T07:37:22.007Z,238.77
2023-11-30T07:39:48.392Z,334.95
2023-11-30T07:42:26.131Z,187.70
2023-11-30T07:44:59.048Z,337.67
2023-11-30T07:47:25.394Z,349.58
2023-11-30T07:49:51.782Z,165.20
2023-11-30T07:52:18.706Z,159.02
2023-11-30T07:54:45.086Z,446.70
2023-11-30T07:57:11.492Z,198.77
2023-11-30T07:59:38.224Z,210.45
2023-11-30T08:02:05.499Z,172.02
2023-11-30T08:04:32.189Z,212.87
2023-11-30T08:06:58.625Z,154.70
2023-11-30T08:09:25.208Z,136.52
2023-11-30T08:11:51.622Z,173.55
2023-11-30T08:14:17.972Z,471.50
2023-11-30T08:16:44.350Z,502.92
2023-11-30T08:19:10.777Z,288.05
2023-11-30T08:21:41.499Z,111.40
2023-11-30T08:24:09.041Z,225.02
2023-11-30T08:26:35.568Z,189.20
2023-11-30T08:29:01.971Z,192.40
2023-11-30T08:31:29.770Z,120.28
2023-11-30T08:33:56.641Z,131.13
2023-11-30T08:36:23.337Z,127.28
2023-11-30T08:38:50.053Z,96.32
2023-11-30T08:41:16.581Z,107.50
2023-11-30T08:43:42.946Z,231.88
2023-11-30T08:46:09.527Z,207.93
2023-11-30T08:48:36.249Z,141.47
2023-11-30T08:51:02.782Z,113.63
2023-11-30T08:53:29.256Z,168.35
2023-11-30T08:55:55.667Z,371.10
2023-11-30T08:58:22.084Z,123.75
2023-11-30T09:00:48.490Z,172.00
2023-11-30T09:03:14.989Z,256.40
2023-11-30T09:05:41.832Z,227.23
2023-11-30T09:08:08.576Z,219.73
2023-11-30T09:10:35.185Z,165.93
2023-11-30T09:13:04.079Z,123.80
2023-11-30T09:15:31.202Z,112.05
2023-11-30T09:17:59.359Z,98.20
2023-11-30T09:20:25.722Z,86.82
2023-11-30T09:22:52.196Z,89.10
2023-11-30T09:25:18.724Z,121.55
2023-11-30T09:27:45.418Z,90.05
2023-11-30T09:30:12.220Z,86.38
2023-11-30T09:32:39.131Z,87.40
2023-11-30T09:35:05.881Z,99.28
2023-11-30T09:37:33.485Z,70.82
2023-11-30T09:40:00.196Z,96.50
2023-11-30T09:42:27.819Z,112.35
2023-11-30T09:44:55.244Z,95.13
2023-11-30T09:47:22.478Z,74.43
2023-11-30T09:49:48.943Z,81.88
2023-11-30T09:52:15.336Z,88.68
2023-11-30T09:54:41.832Z,71.73
2023-11-30T09:57:08.412Z,85.85
2023-11-30T09:59:34.761Z,81.45
2023-11-30T10:02:04.358Z,82.45
2023-11-30T10:04:32.111Z,74.25
2023-11-30T10:06:58.709Z,74.55
2023-11-30T10:09:25.124Z,79.45
2023-11-30T10:11:51.615Z,71.85
2023-11-30T10:14:19.600Z,79.70
2023-11-30T10:16:46.051Z,67.03
2023-11-30T10:19:12.720Z,60.40
2023-11-30T10:21:39.507Z,53.60
2023-11-30T10:24:06.213Z,94.22
2023-11-30T10:26:34.180Z,155.20
2023-11-30T10:29:03.564Z,75.05
2023-11-30T10:31:30.706Z,76.07
2023-11-30T10:34:00.274Z,63.47
2023-11-30T10:36:27.450Z,93.32
2023-11-30T10:38:55.929Z,89.80
2023-11-30T10:41:28.476Z,72.95
2023-11-30T10:43:56.781Z,80.35
2023-11-30T10:46:24.522Z,74.35
2023-11-30T10:48:52.173Z,80.25
2023-11-30T10:51:19.257Z,57.65
2023-11-30T10:53:45.937Z,66.00
2023-11-30T10:56:14.423Z,84.93
2023-11-30T10:58:42.983Z,65.38
2023-11-30T11:01:09.820Z,65.03
2023-11-30T11:03:36.454Z,59.17
2023-11-30T11:06:03.750Z,105.13
2023-11-30T11:08:30.388Z,56.75
2023-11-30T11:11:05.493Z,56.42
2023-11-30T11:13:35.602Z,64.70
2023-11-30T11:16:03.892Z,57.55
2023-11-30T11:18:32.084Z,50.88
2023-11-30T11:20:59.206Z,47.08
2023-11-30T11:23:34.482Z,53.00
2023-11-30T11:26:01.751Z,45.97
2023-11-30T11:28:28.809Z,41.25
2023-11-30T11:30:55.391Z,52.40
2023-11-30T11:33:26.807Z,49.30
2023-11-30T11:35:54.395Z,54.05
2023-11-30T11:38:20.785Z,44.30
2023-11-30T11:40:47.159Z,54.55
2023-11-30T11:43:13.591Z,38.30
2023-11-30T11:45:42.079Z,34.95
2023-11-30T11:48:13.050Z,30.00
2023-11-30T11:50:39.751Z,34.58
2023-11-30T11:53:06.387Z,31.13
2023-11-30T11:55:33.120Z,29.50
2023-11-30T11:57:59.676Z,30.58
2023-11-30T12:00:27.057Z,31.67
2023-11-30T12:03:04.727Z,31.83
2023-11-30T12:05:31.105Z,29.97
2023-11-30T12:07:58.455Z,32.92
2023-11-30T12:10:39.042Z,36.72
2023-11-30T12:13:05.801Z,29.17
2023-11-30T12:15:32.238Z,30.73
2023-11-30T12:17:58.847Z,35.38
2023-11-30T12:20:25.580Z,32.85
2023-11-30T12:22:55.064Z,34.45
2023-11-30T12:25:21.515Z,30.47
2023-11-30T12:27:47.964Z,32.63
2023-11-30T12:30:14.778Z,46.22
2023-11-30T12:32:41.285Z,33.65
2023-11-30T12:35:08.421Z,47.70
2023-11-30T12:37:36.284Z,43.78
2023-11-30T12:40:04.464Z,39.55
2023-11-30T12:42:31.069Z,78.33
2023-11-30T12:44:57.546Z,84.00
2023-11-30T12:47:24.075Z,52.63
2023-11-30T12:49:50.520Z,112.88
2023-11-30T12:52:16.908Z,35.22
2023-11-30T12:54:44.081Z,55.03
2023-11-30T12:57:10.693Z,41.70
2023-11-30T12:59:38.028Z,78.72
2023-11-30T13:02:04.698Z,42.28
2023-11-30T13:04:31.219Z,37.13
2023-11-30T13:06:57.661Z,33.75
2023-11-30T13:09:24.079Z,32.58
2023-11-30T13:11:50.481Z,29.33
2023-11-30T13:14:19.122Z,31.42
2023-11-30T13:16:47.683Z,30.35
2023-11-30T13:19:14.229Z,33.50
2023-11-30T13:21:41.394Z,31.88
2023-11-30T13:24:07.927Z,31.63
2023-11-30T13:26:34.492Z,27.95
2023-11-30T13:29:00.931Z,27.52
2023-11-30T13:31:27.485Z,33.53
2023-11-30T13:33:54.109Z,31.75
2023-11-30T13:36:20.518Z,30.88
2023-11-30T13:38:46.957Z,32.00
2023-11-30T13:41:13.354Z,33.20
2023-11-30T13:43:39.748Z,29.65
2023-11-30T13:46:07.130Z,31.50
2023-11-30T13:48:33.564Z,30.40
2023-11-30T13:51:01.355Z,29.97
2023-11-30T13:53:31.294Z,32.38
2023-11-30T13:55:57.832Z,30.35
2023-11-30T13:58:24.325Z,18.23
2023-11-30T14:00:50.751Z,20.90
2023-11-30T14:03:17.704Z,26.77
2023-11-30T14:05:44.773Z,22.52
2023-11-30T14:08:14.203Z,17.90
2023-11-30T14:10:40.879Z,18.92
2023-11-30T14:13:08.377Z,18.35
2023-11-30T14:15:34.842Z,24.20
2023-11-30T14:18:01.583Z,24.67
2023-11-30T14:20:28.669Z,24.95
2023-11-30T14:22:55.070Z,30.58
2023-11-30T14:25:24.353Z,31.73
2023-11-30T14:27:50.775Z,30.30
2023-11-30T14:30:17.277Z,32.90
2023-11-30T14:32:43.714Z,34.55
2023-11-30T14:35:11.435Z,34.90
2023-11-30T14:37:37.836Z,38.85
2023-11-30T14:40:07.560Z,39.67
2023-11-30T14:42:33.956Z,41.65
2023-11-30T14:45:00.600Z,43.77
2023-11-30T14:47:28.054Z,45.97
2023-11-30T14:49:54.487Z,45.25
2023-11-30T14:52:20.885Z,39.92
2023-11-30T14:54:52.825Z,41.15
2023-11-30T14:57:20.121Z,37.05
2023-11-30T14:59:47.990Z,37.35
2023-11-30T15:02:14.973Z,37.53
2023-11-30T15:04:41.596Z,39.93
2023-11-30T15:07:08.103Z,36.17
2023-11-30T15:09:35.198Z,38.03
2023-11-30T15:12:01.603Z,41.10
2023-11-30T15:14:28.231Z,39.88
2023-11-30T15:16:54.694Z,40.47
2023-11-30T15:19:21.069Z,40.70
2023-11-30T15:21:47.461Z,37.08
2023-11-30T15:24:14.008Z,40.85
2023-11-30T15:26:40.422Z,42.47
2023-11-30T15:29:06.752Z,40.95
2023-11-30T15:31:33.187Z,40.38
2023-11-30T15:33:59.749Z,42.30
2023-11-30T15:36:26.340Z,43.15
2023-11-30T15:38:52.747Z,43.67
2023-11-30T15:41:19.222Z,43.97
2023-11-30T15:43:45.684Z,46.25
2023-11-30T15:46:12.461Z,45.53
2023-11-30T15:48:39.985Z,42.35
2023-11-30T15:51:07.342Z,45.60
2023-11-30T15:53:37.826Z,38.03
2023-11-30T15:56:04.566Z,37.40
2023-11-30T15:58:30.957Z,40.00
2023-11-30T16:00:59.898Z,37.28
2023-11-30T16:03:26.595Z,43.42
2023-11-30T16:05:53.060Z,58.03
2023-11-30T16:08:19.565Z,39.47
2023-11-30T16:10:45.959Z,54.33
2023-11-30T16:13:13.128Z,624.53
2023-11-30T16:15:39.556Z,276.92
2023-11-30T16:18:06.058Z,98.80
2023-11-30T16:20:32.472Z,55.65
2023-11-30T16:23:01.308Z,75.75
2023-11-30T16:25:27.769Z,65.63
2023-11-30T16:27:54.252Z,55.93
2023-11-30T16:30:22.544Z,61.72
2023-11-30T16:32:49.754Z,47.15
2023-11-30T16:35:16.196Z,47.80
2023-11-30T16:37:42.608Z,45.22
2023-11-30T16:40:10.636Z,45.90
2023-11-30T16:42:37.302Z,44.20
2023-11-30T16:45:05.213Z,39.45
2023-11-30T16:47:31.736Z,39.42
2023-11-30T16:49:58.213Z,36.50
2023-11-30T16:52:24.561Z,36.83
2023-11-30T16:54:51.031Z,41.00
2023-11-30T16:57:17.782Z,36.90
2023-11-30T16:59:44.246Z,38.92
2023-11-30T17:02:10.652Z,111.70
2023-11-30T17:04:37.497Z,44.10
2023-11-30T17:07:04.028Z,40.92
2023-11-30T17:09:30.481Z,81.25
2023-11-30T17:11:56.820Z,47.40
2023-11-30T17:14:23.200Z,33.22
2023-11-30T17:16:49.613Z,34.00
2023-11-30T17:19:16.058Z,33.13
2023-11-30T17:21:44.069Z,33.03
2023-11-30T17:24:11.200Z,33.97
2023-11-30T17:26:37.589Z,33.67
2023-11-30T17:29:03.937Z,37.28
2023-11-30T17:31:30.284Z,30.80
2023-11-30T17:33:56.953Z,34.17
2023-11-30T17:36:23.554Z,33.67
2023-11-30T17:38:50.363Z,32.22
2023-11-30T17:41:17.011Z,33.35
2023-11-30T17:43:43.394Z,32.47
2023-11-30T17:46:09.916Z,30.48
2023-11-30T17:48:36.344Z,31.52
2023-11-30T17:51:03.354Z,34.60
2023-11-30T17:53:29.706Z,35.27
2023-11-30T17:55:56.086Z,34.05
2023-11-30T17:58:22.444Z,35.45
2023-11-30T18:00:50.535Z,35.85
2023-11-30T18:03:16.985Z,33.65
2023-11-30T18:05:43.389Z,32.08
2023-11-30T18:08:09.930Z,36.35
2023-11-30T18:10:36.407Z,36.65
2023-11-30T18:13:02.822Z,37.63
2023-11-30T18:15:29.200Z,36.85
2023-11-30T18:17:56.391Z,38.05
2023-11-30T18:20:22.882Z,37.47
2023-11-30T18:22:49.241Z,38.08
2023-11-30T18:25:15.970Z,39.72
2023-11-30T18:27:42.359Z,38.20
2023-11-30T18:30:09.019Z,37.03
2023-11-30T18:32:35.578Z,39.22
2023-11-30T18:35:03.417Z,41.10
2023-11-30T18:37:29.774Z,41.60
2023-11-30T18:39:56.168Z,40.57
2023-11-30T18:42:22.674Z,45.08
2023-11-30T18:44:49.035Z,41.65
2023-11-30T18:47:15.697Z,41.90
2023-11-30T18:49:42.590Z,40.87
2023-11-30T18:52:09.061Z,42.50
2023-11-30T18:54:35.671Z,41.20
2023-11-30T18:57:02.052Z,43.55
2023-11-30T18:59:28.978Z,44.47
2023-11-30T19:01:55.588Z,46.13
2023-11-30T19:04:22.402Z,43.10
2023-11-30T19:06:48.914Z,44.78
2023-11-30T19:09:15.756Z,43.15
2023-11-30T19:11:44.209Z,46.20
2023-11-30T19:14:10.628Z,42.88
2023-11-30T19:16:37.337Z,43.88
2023-11-30T19:19:04.384Z,45.70
2023-11-30T19:21:30.815Z,48.20
2023-11-30T19:23:57.240Z,43.10
2023-11-30T19:26:23.585Z,48.88
2023-11-30T19:28:49.960Z,49.73
2023-11-30T19:31:16.453Z,49.00
2023-11-30T19:33:42.908Z,50.67
2023-11-30T19:36:09.738Z,49.95
2023-11-30T19:38:36.128Z,48.15
2023-11-30T19:41:02.688Z,49.15
2023-11-30T19:43:29.101Z,48.95
2023-11-30T19:45:56.520Z,59.67
2023-11-30T19:48:23.827Z,57.00
2023-11-30T19:50:50.254Z,56.10
2023-11-30T19:53:16.780Z,54.03
2023-11-30T19:55:45.890Z,53.67
2023-11-30T19:58:12.299Z,50.67
2023-11-30T20:00:41.092Z,60.45
2023-11-30T20:03:08.239Z,61.40
2023-11-30T20:05:34.731Z,59.75
2023-11-30T20:08:01.124Z,58.83
2023-11-30T20:10:27.580Z,57.17
2023-11-30T20:12:54.144Z,58.78
2023-11-30T20:15:23.852Z,59.85
2023-11-30T20:17:50.334Z,53.92
2023-11-30T20:20:16.985Z,67.28
2023-11-30T20:22:43.401Z,55.60
2023-11-30T20:25:09.953Z,58.90
2023-11-30T20:27:36.320Z,56.72
2023-11-30T20:30:03.173Z,54.83
2023-11-30T20:32:30.093Z,53.08
2023-11-30T20:34:56.481Z,58.55
2023-11-30T20:37:22.898Z,51.05
2023-11-30T20:39:49.306Z,45.70
2023-11-30T20:42:15.776Z,47.72
2023-11-30T20:44:42.132Z,49.92
2023-11-30T20:47:08.641Z,48.53
2023-11-30T20:49:35.058Z,50.13
2023-11-30T20:52:01.509Z,50.75
2023-11-30T20:54:27.882Z,46.10
2023-11-30T20:56:54.339Z,46.72
2023-11-30T20:59:20.820Z,45.85
2023-11-30T21:01:47.356Z,54.40
2023-11-30T21:04:13.998Z,46.10
2023-11-30T21:06:40.529Z,49.00
2023-11-30T21:09:08.164Z,47.17
2023-11-30T21:11:37.612Z,47.90
2023-11-30T21:14:03.965Z,46.80
2023-11-30T21:16:30.434Z,48.20
2023-11-30T21:18:56.909Z,49.58
2023-11-30T21:21:23.280Z,50.67
2023-11-30T21:23:49.873Z,46.08
2023-11-30T21:26:16.872Z,44.97
2023-11-30T21:28:43.271Z,43.60
2023-11-30T21:31:10.103Z,47.20
2023-11-30T21:33:36.496Z,46.83
2023-11-30T21:36:04.487Z,45.55
2023-11-30T21:38:30.869Z,45.92
2023-11-30T21:40:57.349Z,44.88
2023-11-30T21:43:24.015Z,46.78
2023-11-30T21:45:50.678Z,50.90
2023-11-30T21:48:17.179Z,46.13
2023-11-30T21:50:43.947Z,49.37
2023-11-30T21:53:11.106Z,48.60
2023-11-30T21:55:37.501Z,48.50
2023-11-30T21:58:04.094Z,53.60
2023-11-30T22:00:30.601Z,49.47
2023-11-30T22:02:57.620Z,50.55
2023-11-30T22:05:30.692Z,53.13
2023-11-30T22:08:02.617Z,48.90
2023-11-30T22:10:28.987Z,53.95
2023-11-30T22:12:55.423Z,55.35
2023-11-30T22:15:22.849Z,56.00
2023-11-30T22:17:49.361Z,54.50
2023-11-30T22:20:15.774Z,56.70
2023-11-30T22:22:42.179Z,52.50
2023-11-30T22:25:09.057Z,52.42
2023-11-30T22:27:35.417Z,51.40
2023-11-30T22:30:01.984Z,50.85
2023-11-30T22:32:28.442Z,55.00
2023-11-30T22:34:55.211Z,54.72
2023-11-30T22:37:21.741Z,53.28
2023-11-30T22:39:48.177Z,55.87
2023-11-30T22:42:14.757Z,56.00
2023-11-30T22:44:41.181Z,60.15
2023-11-30T22:47:07.599Z,57.13
2023-11-30T22:49:34.059Z,57.10
2023-11-30T22:52:00.606Z,56.47
2023-11-30T22:54:28.625Z,59.67
2023-11-30T22:56:55.262Z,57.47
2023-11-30T22:59:21.764Z,60.65
2023-11-30T23:01:48.327Z,59.50
2023-11-30T23:04:15.033Z,63.65
2023-11-30T23:06:41.854Z,59.13
2023-11-30T23:09:08.323Z,64.53
2023-11-30T23:11:34.913Z,63.90
2023-11-30T23:14:01.323Z,61.20
2023-11-30T23:16:28.212Z,66.85
2023-11-30T23:18:54.701Z,66.13
2023-11-30T23:21:21.164Z,64.03
2023-11-30T23:23:47.505Z,75.82
2023-11-30T23:26:13.845Z,62.08
2023-11-30T23:28:40.356Z,62.28
2023-11-30T23:31:06.945Z,67.45
2023-11-30T23:33:33.416Z,63.08
2023-11-30T23:35:59.798Z,62.80
2023-11-30T23:38:26.190Z,62.35
2023-11-30T23:40:52.749Z,61.45
2023-11-30T23:43:19.231Z,62.33
2023-11-30T23:45:45.706Z,59.42
2023-11-30T23:48:12.204Z,59.58
2023-11-30T23:50:38.573Z,57.78
2023-11-30T23:53:04.953Z,54.67
2023-11-30T23:55:31.318Z,58.40
2023-11-30T23:57:57.879Z,54.00
